Time;durP1;ratioP1;P1;durP2;ratioP2;P2;SDS_P1;SDS_P2;PMS_P1;PMS_P2;Temp;Humidity;BMP_temperature;BMP_pressure;BME280_temperature;BME280_humidity;BME280_pressure;Samples;Min_cycle;Max_cycle;Signal;HPM_P1;HPM_P2
2022/03/21 00:00:59;;;;;;;;;61.50;50.50;;;;;9.26;56.54;102465.72;5085597;27;45417;-66
2022/03/21 00:03:29;;;;;;;;;62.00;49.00;;;;;9.18;56.55;102473.47;5079415;27;45420;-66
2022/03/21 00:05:57;;;;;;;;;68.50;51.50;;;;;9.17;56.73;102471.72;5094144;27;45412;-66
2022/03/21 00:08:24;;;;;;;;;62.50;49.50;;;;;9.15;57.01;102473.66;5078792;28;45719;-66
2022/03/21 00:10:50;;;;;;;;;63.50;52.50;;;;;9.07;57.50;102475.97;5081118;27;45390;-66
2022/03/21 00:13:16;;;;;;;;;69.00;52.25;;;;;9.03;57.43;102473.56;5084313;27;45389;-66
2022/03/21 00:15:43;;;;;;;;;58.25;49.50;;;;;8.88;57.54;102456.44;5082994;27;45481;-66
2022/03/21 00:18:13;;;;;;;;;67.50;49.50;;;;;8.99;57.32;102472.88;5081070;27;45599;-66
2022/03/21 00:20:43;;;;;;;;;63.50;50.00;;;;;9.01;57.55;102473.66;5080882;27;45391;-66
2022/03/21 00:23:09;;;;;;;;;65.75;51.25;;;;;9.06;57.38;102476.94;5085259;27;45267;-66
2022/03/21 00:25:34;;;;;;;;;62.75;50.00;;;;;9.09;57.24;102476.75;5083506;27;45475;-66
2022/03/21 00:27:59;;;;;;;;;63.75;49.00;;;;;9.06;57.24;102468.81;5090212;27;45873;-66
2022/03/21 00:30:26;;;;;;;;;53.00;46.00;;;;;9.02;58.05;102483.53;5088366;27;45440;-67
2022/03/21 00:32:52;;;;;;;;;59.25;48.50;;;;;9.04;57.74;102476.19;5098489;27;45327;-66
2022/03/21 00:35:19;;;;;;;;;66.00;52.00;;;;;9.04;57.30;102473.47;5085823;27;45423;-66
2022/03/21 00:37:46;;;;;;;;;61.50;49.50;;;;;9.01;57.85;102470.94;5108980;27;47376;-67
2022/03/21 00:40:13;;;;;;;;;62.00;49.00;;;;;9.02;57.88;102475.41;5070518;27;45377;-66
2022/03/21 00:42:40;;;;;;;;;71.25;50.75;;;;;9.01;58.22;102473.66;5067927;27;45251;-67
2022/03/21 00:45:09;;;;;;;;;63.25;49.75;;;;;8.92;58.38;102476.94;5071764;28;45638;-68
2022/03/21 00:47:35;;;;;;;;;63.25;49.25;;;;;8.96;57.80;102475.78;5067847;28;46462;-67
2022/03/21 00:50:00;;;;;;;;;62.50;50.00;;;;;8.90;58.76;102476.19;5071392;28;45447;-65
2022/03/21 00:52:26;;;;;;;;;63.00;48.25;;;;;8.83;59.05;102472.13;5069698;28;45410;-65
2022/03/21 00:54:51;;;;;;;;;61.75;48.50;;;;;8.74;59.56;102470.84;5069789;28;45480;-66
2022/03/21 00:57:16;;;;;;;;;65.00;50.25;;;;;8.71;59.23;102470.13;5070723;28;46106;-67
2022/03/21 00:59:42;;;;;;;;;67.50;50.00;;;;;8.58;59.88;102461.91;5068837;28;45381;-67
2022/03/21 01:02:12;;;;;;;;;54.50;41.75;;;;;8.51;60.54;102472.25;5072129;27;45353;-66
2022/03/21 01:04:38;;;;;;;;;68.00;50.50;;;;;8.41;60.85;102465.63;5071897;28;45420;-66
2022/03/21 01:07:04;;;;;;;;;57.50;47.50;;;;;8.45;60.31;102467.19;5072042;28;45500;-66
2022/03/21 01:09:29;;;;;;;;;64.00;46.75;;;;;8.38;61.21;102465.84;5067160;28;45314;-66
2022/03/21 01:11:55;;;;;;;;;65.50;51.50;;;;;8.35;61.13;102474.13;5064887;28;45256;-66
2022/03/21 01:14:20;;;;;;;;;66.50;51.25;;;;;8.32;61.22;102470.75;5066241;28;45492;-66
2022/03/21 01:16:46;;;;;;;;;61.00;46.50;;;;;8.28;61.65;102464.59;5064346;28;46225;-67
2022/03/21 01:19:12;;;;;;;;;63.25;52.00;;;;;8.29;61.48;102466.34;5068178;27;45716;-66
2022/03/21 01:21:37;;;;;;;;;62.00;48.00;;;;;8.30;61.23;102468.09;5077638;28;45645;-67
2022/03/21 01:24:03;;;;;;;;;66.75;49.25;;;;;8.21;61.05;102438.84;5076184;28;45539;-67
2022/03/21 01:26:28;;;;;;;;;67.75;51.00;;;;;8.35;61.27;102466.00;5064032;28;46546;-67
2022/03/21 01:28:53;;;;;;;;;65.25;49.25;;;;;8.26;61.65;102466.50;5085509;27;45359;-67
2022/03/21 01:31:19;;;;;;;;;61.25;49.75;;;;;8.27;61.57;102470.97;5071396;28;45313;-67
2022/03/21 01:33:44;;;;;;;;;62.75;47.25;;;;;8.29;61.34;102477.19;5083204;28;45530;-67
2022/03/21 01:36:10;;;;;;;;;62.75;49.25;;;;;8.26;61.75;102477.34;5070579;28;45537;-67
2022/03/21 01:38:35;;;;;;;;;64.00;50.50;;;;;8.30;61.44;102468.09;5082882;28;45321;-67
2022/03/21 01:41:01;;;;;;;;;67.50;52.00;;;;;8.33;61.39;102473.34;5069840;28;45362;-67
2022/03/21 01:43:26;;;;;;;;;65.75;47.00;;;;;8.38;61.20;102482.09;5064866;28;45461;-67
2022/03/21 01:45:52;;;;;;;;;66.00;51.50;;;;;8.27;62.04;102470.97;5075431;28;45348;-67
2022/03/21 01:48:17;;;;;;;;;67.25;51.25;;;;;8.25;61.52;102475.63;5062822;28;45509;-67
2022/03/21 01:50:43;;;;;;;;;66.50;48.75;;;;;8.27;61.96;102468.25;5074099;28;45403;-67
2022/03/21 01:55:56;;;;;;;;;64.00;49.75;;;;;8.40;61.66;102477.41;5069870;28;45492;-66
2022/03/21 01:58:25;;;;;;;;;62.00;48.75;;;;;8.45;61.40;102478.03;5078806;28;45331;-67
2022/03/21 02:00:51;;;;;;;;;64.50;48.50;;;;;8.49;61.21;102466.03;5075757;28;45408;-67
2022/03/21 02:03:21;;;;;;;;;62.50;46.50;;;;;8.56;60.86;102475.53;5068652;28;45537;-67
2022/03/21 02:05:47;;;;;;;;;66.25;49.00;;;;;8.65;60.65;102473.22;5077412;28;47103;-67
2022/03/21 02:08:13;;;;;;;;;60.25;48.00;;;;;8.71;60.60;102480.97;5063603;28;45444;-67
2022/03/21 02:10:42;;;;;;;;;60.50;49.25;;;;;8.74;60.58;102478.09;5074634;28;45409;-67
2022/03/21 02:13:09;;;;;;;;;63.00;48.25;;;;;8.72;60.57;102469.19;5063397;28;45511;-67
2022/03/21 02:15:35;;;;;;;;;59.75;47.25;;;;;8.70;60.44;102473.81;5065258;28;45383;-67
2022/03/21 02:18:02;;;;;;;;;62.00;46.75;;;;;8.67;60.39;102472.19;5091859;27;45318;-68
2022/03/21 02:20:31;;;;;;;;;61.25;47.75;;;;;8.68;59.84;102463.09;5065297;28;45396;-67
2022/03/21 02:23:26;;;;;;;;;60.25;46.25;;;;;8.68;60.15;102464.94;5068185;28;45562;-66
2022/03/21 02:25:54;;;;;;;;;57.00;41.75;;;;;8.59;60.52;102464.53;5067369;28;45510;-66
2022/03/21 02:28:20;;;;;;;;;60.75;47.00;;;;;8.52;60.56;102474.00;5090839;27;45638;-67
2022/03/21 02:30:48;;;;;;;;;60.00;48.00;;;;;8.54;60.72;102476.63;5068381;27;45396;-67
2022/03/21 02:33:16;;;;;;;;;61.50;48.00;;;;;8.49;61.35;102463.31;5082204;28;45627;-67
2022/03/21 02:35:46;;;;;;;;;64.75;50.00;;;;;8.46;61.23;102452.69;5066839;28;45864;-67
2022/03/21 02:38:13;;;;;;;;;62.25;45.75;;;;;8.43;61.57;102457.41;5083028;27;45523;-68
2022/03/21 02:40:39;;;;;;;;;64.25;48.25;;;;;8.46;61.11;102452.69;5073598;28;45271;-67
2022/03/21 02:43:04;;;;;;;;;61.50;49.00;;;;;8.41;61.25;102443.97;5064175;28;45227;-66
2022/03/21 02:45:30;;;;;;;;;65.50;51.75;;;;;8.40;61.33;102453.03;5073180;28;46340;-67
2022/03/21 02:47:55;;;;;;;;;57.75;46.25;;;;;8.39;61.33;102445.91;5063991;28;45322;-67
2022/03/21 02:50:49;;;;;;;;;56.50;46.50;;;;;8.40;61.55;102449.50;5072215;28;45353;-67
2022/03/21 02:53:18;;;;;;;;;54.75;44.00;;;;;8.44;60.98;102451.91;5069889;27;45314;-67
2022/03/21 02:55:44;;;;;;;;;59.00;47.50;;;;;8.38;61.29;102443.28;5074262;28;46906;-67
2022/03/21 02:58:09;;;;;;;;;51.00;43.25;;;;;8.34;61.47;102452.53;5063831;28;45271;-67
2022/03/21 03:00:35;;;;;;;;;56.25;46.50;;;;;8.39;61.40;102451.31;5076990;27;45393;-67
2022/03/21 03:03:00;;;;;;;;;60.50;48.00;;;;;8.32;61.80;102449.97;5067989;28;45324;-67
2022/03/21 03:05:25;;;;;;;;;61.25;46.25;;;;;8.28;61.44;102442.94;5076038;28;45435;-67
2022/03/21 03:07:51;;;;;;;;;58.50;42.75;;;;;8.27;62.29;102453.84;5073505;28;45617;-67
2022/03/21 03:10:16;;;;;;;;;59.75;45.75;;;;;8.26;61.81;102460.22;5070067;28;45311;-67
2022/03/21 03:12:42;;;;;;;;;61.00;46.00;;;;;8.29;62.04;102452.81;5065840;28;45361;-67
2022/03/21 03:15:07;;;;;;;;;54.00;43.00;;;;;8.35;61.18;102443.47;5068324;28;45566;-67
2022/03/21 03:17:33;;;;;;;;;59.00;47.25;;;;;8.38;61.67;102451.41;5064993;28;45313;-67
2022/03/21 03:19:58;;;;;;;;;64.00;48.50;;;;;8.26;61.92;102436.72;5067318;28;45350;-67
2022/03/21 03:22:25;;;;;;;;;60.00;47.25;;;;;8.35;62.25;102455.16;5068335;27;45235;-67
2022/03/21 03:24:51;;;;;;;;;49.75;35.00;;;;;8.31;61.92;102440.09;5065116;28;46372;-67
2022/03/21 03:27:17;;;;;;;;;58.00;46.75;;;;;8.38;61.75;102449.56;5076414;28;45385;-67
2022/03/21 03:29:42;;;;;;;;;53.75;45.00;;;;;8.42;61.78;102450.25;5084288;27;45399;-67
2022/03/21 03:32:08;;;;;;;;;56.25;43.25;;;;;8.44;60.68;102451.03;5076087;28;45413;-67
2022/03/21 03:34:35;;;;;;;;;68.50;49.50;;;;;8.49;61.28;102459.75;5074065;28;46507;-67
2022/03/21 03:37:00;;;;;;;;;53.25;39.00;;;;;8.46;61.64;102460.81;5069437;28;45367;-67
2022/03/21 03:39:26;;;;;;;;;59.00;46.00;;;;;8.48;60.99;102464.28;5062814;28;45461;-67
2022/03/21 03:41:51;;;;;;;;;56.25;43.50;;;;;8.47;61.54;102454.44;5071949;28;45397;-67
2022/03/21 03:44:17;;;;;;;;;58.25;43.75;;;;;8.46;61.87;102463.53;5063800;28;48026;-67
2022/03/21 03:46:44;;;;;;;;;63.25;46.00;;;;;8.45;62.13;102459.06;5075103;28;45247;-67
2022/03/21 03:49:09;;;;;;;;;57.75;45.00;;;;;8.47;61.58;102464.41;5078276;27;45275;-67
2022/03/21 03:51:34;;;;;;;;;65.75;48.00;;;;;8.52;61.80;102465.88;5072993;28;45556;-67
2022/03/21 03:54:00;;;;;;;;;63.25;48.50;;;;;8.49;62.33;102459.75;5080545;28;46486;-67
2022/03/21 03:56:25;;;;;;;;;56.25;46.25;;;;;8.48;62.00;102469.72;5071191;28;45305;-67
2022/03/21 03:58:51;;;;;;;;;58.75;45.25;;;;;8.53;62.00;102470.31;5063764;28;45275;-67
2022/03/21 04:01:16;;;;;;;;;61.00;49.00;;;;;8.59;61.85;102471.78;5071559;27;45421;-67
2022/03/21 04:03:44;;;;;;;;;64.00;47.25;;;;;8.63;61.78;102470.59;5061059;28;48330;-67
2022/03/21 04:06:11;;;;;;;;;60.00;48.25;;;;;8.61;62.25;102471.69;5068039;28;45393;-67
2022/03/21 04:08:36;;;;;;;;;62.75;47.25;;;;;8.64;61.84;102474.19;5064453;28;45345;-67
2022/03/21 04:11:02;;;;;;;;;53.50;44.00;;;;;8.71;61.55;102471.00;5067451;28;45587;-67
2022/03/21 04:13:28;;;;;;;;;48.00;39.00;;;;;8.78;60.80;102471.50;5069220;28;45469;-67
2022/03/21 04:15:53;;;;;;;;;60.00;47.50;;;;;8.83;61.46;102480.25;5067947;28;45346;-67
2022/03/21 04:18:20;;;;;;;;;60.25;47.00;;;;;8.80;61.48;102488.56;5068241;28;45367;-67
2022/03/21 04:20:45;;;;;;;;;59.00;42.25;;;;;8.85;61.20;102491.84;5067947;28;45508;-66
2022/03/21 04:23:11;;;;;;;;;62.00;48.75;;;;;8.85;61.25;102484.59;5071759;28;45404;-66
2022/03/21 04:25:37;;;;;;;;;67.75;48.50;;;;;8.94;60.44;102503.00;5070151;27;45509;-66
2022/03/21 04:28:12;;;;;;;;;62.50;47.75;;;;;8.97;60.51;102486.56;5090978;27;45396;-66
2022/03/21 04:30:38;;;;;;;;;58.50;44.00;;;;;8.95;60.78;102488.47;5072882;27;45456;-66
2022/03/21 04:33:04;;;;;;;;;59.25;44.75;;;;;8.87;61.55;102493.50;5085833;27;45492;-66
2022/03/21 04:35:30;;;;;;;;;59.50;49.00;;;;;8.86;61.42;102483.63;5076905;28;45349;-65
2022/03/21 04:37:57;;;;;;;;;42.25;37.00;;;;;8.94;60.81;102494.84;5065925;27;45381;-65
2022/03/21 04:40:25;;;;;;;;;54.25;44.50;;;;;9.05;60.39;102499.63;5070360;28;45428;-65
2022/03/21 04:42:51;;;;;;;;;61.75;46.25;;;;;9.08;60.60;102495.84;5064923;28;45668;-65
2022/03/21 04:45:19;;;;;;;;;63.50;49.00;;;;;9.08;60.28;102499.41;5072266;28;45366;-66
2022/03/21 04:47:45;;;;;;;;;62.25;48.75;;;;;9.12;60.28;102505.53;5075125;28;45410;-66
2022/03/21 04:50:11;;;;;;;;;58.00;46.00;;;;;9.16;60.13;102507.94;5073048;28;45611;-66
2022/03/21 04:52:36;;;;;;;;;57.50;41.25;;;;;9.16;59.78;102513.38;5068193;28;46120;-66
2022/03/21 04:55:03;;;;;;;;;56.25;44.75;;;;;9.15;59.41;102511.63;5067246;28;45547;-66
2022/03/21 04:57:29;;;;;;;;;61.50;43.00;;;;;9.20;60.16;102509.50;5064899;28;45399;-66
2022/03/21 04:59:55;;;;;;;;;66.00;49.25;;;;;9.20;59.95;102514.94;5075507;28;45502;-66
2022/03/21 05:02:21;;;;;;;;;59.25;44.00;;;;;9.22;60.08;102510.25;5068214;28;46896;-66
2022/03/21 05:04:46;;;;;;;;;54.00;44.75;;;;;9.24;60.02;102505.63;5069309;28;45420;-67
2022/03/21 05:07:16;;;;;;;;;57.00;42.25;;;;;9.27;60.04;102510.00;5064298;28;45421;-66
2022/03/21 05:09:43;;;;;;;;;58.00;45.50;;;;;9.29;59.88;102514.34;5073200;28;45501;-66
2022/03/21 05:12:12;;;;;;;;;64.50;47.50;;;;;9.27;59.94;102505.44;5064486;28;46189;-66
2022/03/21 05:14:38;;;;;;;;;60.25;48.75;;;;;9.28;60.41;102511.72;5065000;28;45483;-66
2022/03/21 05:17:05;;;;;;;;;57.75;45.75;;;;;9.19;60.87;102512.31;5071308;28;45522;-66
2022/03/21 05:19:35;;;;;;;;;58.25;46.50;;;;;9.15;61.01;102521.59;5069536;27;45535;-66
2022/03/21 05:22:02;;;;;;;;;69.00;49.25;;;;;9.15;61.24;102522.47;5084422;27;46585;-65
2022/03/21 05:32:39;;;;;;;;;59.50;47.25;;;;;9.20;61.23;102520.38;5080253;28;45336;-65
2022/03/21 05:37:49;;;;;;;;;66.25;50.00;;;;;9.17;61.08;102525.97;5082679;28;45282;-65
2022/03/21 05:40:34;;;;;;;;;62.75;49.50;;;;;9.19;61.67;102526.75;5075072;28;45494;-65
2022/03/21 05:43:00;;;;;;;;;63.00;49.00;;;;;9.16;61.75;102526.06;5071277;28;46564;-65
2022/03/21 05:45:26;;;;;;;;;66.50;50.50;;;;;9.06;62.17;102520.31;5077727;27;45396;-65
2022/03/21 05:50:37;;;;;;;;;58.50;45.75;;;;;9.08;62.38;102526.53;5074701;28;45318;-66
2022/03/21 05:53:04;;;;;;;;;65.50;51.00;;;;;9.10;62.47;102530.03;5063680;28;45925;-66
2022/03/21 05:55:30;;;;;;;;;62.50;47.75;;;;;9.12;61.65;102536.22;5073962;28;45335;-65
2022/03/21 05:57:56;;;;;;;;;61.00;49.75;;;;;9.12;62.02;102538.94;5065021;28;45535;-66
2022/03/21 06:00:21;;;;;;;;;63.50;47.50;;;;;9.11;62.16;102547.16;5076726;28;45354;-65
2022/03/21 06:02:51;;;;;;;;;58.75;47.25;;;;;9.07;62.17;102538.34;5065881;28;45457;-65
2022/03/21 06:05:17;;;;;;;;;62.00;46.50;;;;;9.09;62.21;102543.69;5068921;28;45295;-66
2022/03/21 06:07:42;;;;;;;;;57.25;45.25;;;;;9.03;62.23;102539.50;5063650;28;45497;-66
2022/03/21 06:10:08;;;;;;;;;66.00;50.75;;;;;9.07;62.59;102541.06;5072507;28;45503;-66
2022/03/21 06:12:33;;;;;;;;;61.50;46.25;;;;;9.11;61.94;102555.31;5063285;28;45337;-66
2022/03/21 06:14:59;;;;;;;;;58.00;47.25;;;;;9.10;62.04;102550.84;5073057;28;45272;-66
2022/03/21 06:17:24;;;;;;;;;56.75;44.75;;;;;9.08;62.26;102561.78;5064972;28;45393;-66
2022/03/21 06:19:50;;;;;;;;;65.25;48.00;;;;;9.09;62.24;102555.41;5066271;27;45453;-66
2022/03/21 06:22:15;;;;;;;;;68.00;50.25;;;;;9.06;62.80;102569.13;5063431;28;45247;-66
2022/03/21 06:24:40;;;;;;;;;65.25;51.50;;;;;9.03;62.70;102560.31;5075299;28;45242;-65
2022/03/21 06:27:06;;;;;;;;;63.00;48.25;;;;;9.05;61.96;102561.13;5075415;28;45316;-65
2022/03/21 06:29:31;;;;;;;;;63.75;48.75;;;;;9.06;62.65;102571.84;5087536;27;45417;-66
2022/03/21 06:31:57;;;;;;;;;60.75;49.50;;;;;9.11;62.89;102586.00;5073871;28;45492;-66
2022/03/21 06:34:22;;;;;;;;;72.75;54.00;;;;;9.20;62.47;102585.44;5074890;27;45895;-66
2022/03/21 06:36:49;;;;;;;;;58.50;47.50;;;;;9.22;62.29;102575.34;5070895;28;45477;-67
2022/03/21 06:39:14;;;;;;;;;66.00;50.50;;;;;9.33;62.00;102589.13;5065387;28;45301;-66
2022/03/21 06:41:41;;;;;;;;;66.25;50.25;;;;;9.41;61.75;102598.63;5071761;28;46093;-66
2022/03/21 06:44:06;;;;;;;;;68.25;49.50;;;;;9.52;61.79;102593.41;5065167;28;45301;-66
2022/03/21 06:46:31;;;;;;;;;70.50;54.00;;;;;9.62;61.92;102602.72;5067963;28;45222;-65
2022/03/21 06:48:57;;;;;;;;;63.75;51.00;;;;;9.77;60.75;102608.03;5079925;28;45356;-65
2022/03/21 06:51:22;;;;;;;;;69.25;51.25;;;;;9.83;60.96;102606.78;5072445;28;45462;-65
2022/03/21 06:53:48;;;;;;;;;71.75;54.25;;;;;9.87;61.08;102608.31;5062960;28;45342;-67
2022/03/21 06:56:13;;;;;;;;;66.50;49.25;;;;;9.96;60.33;102605.00;5073571;27;45344;-66
2022/03/21 06:58:38;;;;;;;;;66.50;49.75;;;;;10.05;59.97;102614.41;5061135;28;45504;-67
2022/03/21 07:01:04;;;;;;;;;65.25;50.75;;;;;10.03;60.42;102614.50;5068060;28;45369;-66
2022/03/21 07:03:30;;;;;;;;;65.50;49.75;;;;;10.03;60.80;102614.50;5078010;28;45354;-66
2022/03/21 07:05:56;;;;;;;;;63.75;50.75;;;;;10.09;60.87;102613.22;5068073;28;45516;-66
2022/03/21 07:08:21;;;;;;;;;66.25;51.00;;;;;10.12;60.52;102613.91;5067152;28;45290;-65
2022/03/21 07:10:46;;;;;;;;;69.50;51.00;;;;;10.16;60.64;102604.56;5066171;28;46182;-68
2022/03/21 07:13:12;;;;;;;;;65.25;52.25;;;;;10.29;60.01;102612.84;5066593;28;45382;-67
2022/03/21 07:15:37;;;;;;;;;70.75;53.50;;;;;10.43;59.91;102611.91;5074622;28;45431;-67
2022/03/21 07:18:04;;;;;;;;;63.50;49.75;;;;;10.56;59.76;102615.56;5066418;27;45355;-67
2022/03/21 07:20:30;;;;;;;;;63.25;50.25;;;;;10.68;59.58;102613.84;5065803;28;47120;-67
2022/03/21 07:22:57;;;;;;;;;62.75;47.25;;;;;10.76;58.53;102615.06;5063968;28;45204;-66
2022/03/21 07:25:24;;;;;;;;;69.00;52.00;;;;;10.88;58.85;102629.69;5068636;28;45452;-68
2022/03/21 07:27:49;;;;;;;;;60.50;50.50;;;;;10.97;58.67;102622.72;5083518;27;45552;-67
2022/03/21 07:30:16;;;;;;;;;66.00;50.75;;;;;11.02;58.33;102612.44;5083839;27;47203;-67
2022/03/21 07:32:43;;;;;;;;;65.75;53.00;;;;;11.11;58.85;102614.50;5063059;28;45445;-68
2022/03/21 07:35:09;;;;;;;;;61.00;50.00;;;;;11.27;58.26;102620.59;5066221;28;45259;-68
2022/03/21 07:37:49;;;;;;;;;65.00;48.25;;;;;11.41;58.03;102615.06;5066260;27;45349;-68
2022/03/21 07:40:16;;;;;;;;;63.00;48.50;;;;;11.52;57.64;102622.50;5069538;28;46191;-67
2022/03/21 07:42:43;;;;;;;;;60.75;47.00;;;;;11.67;57.76;102619.53;5065223;28;45260;-67
2022/03/21 07:47:54;;;;;;;;;63.75;47.00;;;;;12.33;56.23;102623.81;5063591;28;45252;-67
2022/03/21 07:50:20;;;;;;;;;60.25;46.25;;;;;12.54;55.52;102636.81;5072260;28;45629;-66
2022/03/21 07:52:47;;;;;;;;;60.00;46.75;;;;;12.71;55.13;102622.78;5074114;27;45390;-66
2022/03/21 07:55:13;;;;;;;;;61.00;48.75;;;;;12.81;54.84;102618.34;5072612;28;45483;-66
2022/03/21 07:57:38;;;;;;;;;58.25;45.75;;;;;13.09;54.34;102623.41;5069349;28;45259;-66
2022/03/21 08:00:05;;;;;;;;;59.25;47.50;;;;;13.43;53.66;102620.81;5075547;28;45376;-67
2022/03/21 08:02:30;;;;;;;;;61.75;47.25;;;;;13.72;53.10;102630.28;5070247;28;45474;-67
2022/03/21 08:04:57;;;;;;;;;60.75;46.75;;;;;13.97;52.18;102620.94;5070653;28;45376;-67
2022/03/21 08:07:22;;;;;;;;;60.25;45.00;;;;;14.17;51.57;102611.16;5065576;28;45456;-67
2022/03/21 08:09:48;;;;;;;;;51.00;42.00;;;;;14.25;50.83;102604.00;5073860;28;46526;-67
2022/03/21 08:12:14;;;;;;;;;52.50;41.00;;;;;14.40;51.08;102619.19;5073474;28;45394;-67
2022/03/21 08:14:39;;;;;;;;;51.25;42.00;;;;;14.62;50.81;102629.19;5077354;28;45409;-67
2022/03/21 08:17:05;;;;;;;;;55.50;41.75;;;;;14.83;50.22;102620.19;5065819;28;45453;-68
2022/03/21 08:19:31;;;;;;;;;48.50;40.00;;;;;14.99;49.96;102629.69;5069788;28;46525;-66
2022/03/21 08:21:56;;;;;;;;;49.25;40.00;;;;;15.23;49.61;102629.44;5073205;28;45319;-65
2022/03/21 08:24:23;;;;;;;;;49.25;39.75;;;;;15.51;48.90;102631.50;5079599;28;45542;-66
2022/03/21 08:26:49;;;;;;;;;48.50;39.00;;;;;15.91;48.00;102630.75;5073048;28;45473;-66
2022/03/21 08:29:15;;;;;;;;;48.25;40.75;;;;;16.19;48.20;102624.50;5091447;27;47009;-65
2022/03/21 08:31:40;;;;;;;;;47.75;39.25;;;;;16.52;46.81;102617.78;5067740;27;45641;-66
2022/03/21 08:34:06;;;;;;;;;51.00;38.75;;;;;16.79;46.30;102617.16;5064380;28;45275;-67
2022/03/21 08:36:31;;;;;;;;;48.75;40.50;;;;;16.83;45.72;102617.72;5066299;28;45368;-67
2022/03/21 08:38:57;;;;;;;;;49.75;41.50;;;;;16.74;44.63;102613.94;5065313;28;46018;-67
2022/03/21 08:41:23;;;;;;;;;52.25;40.50;;;;;16.62;44.98;102618.72;5074550;27;45313;-67
2022/03/21 08:43:48;;;;;;;;;51.50;42.50;;;;;16.69;44.55;102610.78;5065170;28;45223;-67
2022/03/21 08:46:14;;;;;;;;;43.75;36.50;;;;;17.24;45.29;102622.06;5074756;28;45589;-67
2022/03/21 08:51:23;;;;;;;;;43.50;35.00;;;;;17.84;43.43;102626.25;5074562;28;45191;-67
2022/03/21 08:53:49;;;;;;;;;46.50;37.50;;;;;17.94;43.90;102623.47;5065018;28;47709;-68
2022/03/21 08:56:14;;;;;;;;;47.00;37.50;;;;;17.96;42.50;102618.72;5076253;28;45475;-68
2022/03/21 08:58:40;;;;;;;;;48.50;39.75;;;;;18.09;41.11;102621.97;5063261;28;47976;-67
2022/03/21 09:01:05;;;;;;;;;51.25;40.75;;;;;17.62;41.70;102616.50;5079928;28;45858;-67
2022/03/21 09:03:30;;;;;;;;;40.75;36.00;;;;;17.64;42.00;102619.09;5064917;28;45244;-67
2022/03/21 09:05:56;;;;;;;;;42.75;36.25;;;;;17.98;41.95;102616.66;5070453;28;45639;-67
2022/03/21 09:08:21;;;;;;;;;43.00;36.75;;;;;17.76;40.73;102605.00;5068205;28;48107;-68
2022/03/21 09:10:48;;;;;;;;;38.00;32.00;;;;;18.15;42.05;102605.72;5074707;27;45366;-67
2022/03/21 09:13:13;;;;;;;;;41.75;33.50;;;;;18.55;41.03;102616.34;5082377;28;45494;-67
2022/03/21 09:15:38;;;;;;;;;47.25;37.75;;;;;18.78;39.20;102610.41;5070015;28;45545;-67
2022/03/21 09:18:04;;;;;;;;;43.75;35.25;;;;;18.86;39.41;102608.59;5066212;28;45835;-67
2022/03/21 09:20:30;;;;;;;;;43.00;34.75;;;;;19.02;40.15;102619.78;5066624;28;45453;-66
2022/03/21 09:22:57;;;;;;;;;43.50;37.00;;;;;19.06;38.29;102606.56;5080356;27;45395;-67
2022/03/21 09:25:22;;;;;;;;;45.75;36.25;;;;;19.18;38.23;102601.66;5067234;28;45389;-68
2022/03/21 09:27:48;;;;;;;;;43.50;34.25;;;;;19.20;38.76;102602.38;5085171;27;45875;-67
2022/03/21 09:30:13;;;;;;;;;43.25;33.00;;;;;19.42;38.40;102608.22;5081173;27;45351;-68
2022/03/21 09:32:39;;;;;;;;;42.50;32.50;;;;;19.42;37.77;102605.47;5068367;27;45640;-67
2022/03/21 09:35:05;;;;;;;;;36.25;32.50;;;;;19.22;37.56;102606.66;5067951;28;45607;-67
2022/03/21 09:37:32;;;;;;;;;40.25;33.25;;;;;19.38;38.77;102608.69;5064199;28;45284;-66
2022/03/21 09:39:58;;;;;;;;;41.00;34.50;;;;;19.56;37.96;102605.94;5068792;28;45264;-66
2022/03/21 09:42:25;;;;;;;;;39.75;33.25;;;;;19.63;37.15;102607.88;5082901;28;45401;-66
2022/03/21 09:44:52;;;;;;;;;33.00;30.75;;;;;19.63;38.16;102607.00;5076604;28;45503;-66
2022/03/21 09:50:13;;;;;;;;;31.50;29.25;;;;;20.19;37.55;102610.06;5070583;28;45679;-66
2022/03/21 09:52:39;;;;;;;;;31.25;27.25;;;;;20.52;36.82;102599.19;5068041;28;45180;-66
2022/03/21 09:55:07;;;;;;;;;20.75;17.00;;;;;20.45;36.39;102598.13;5068823;28;45432;-66
2022/03/21 09:57:35;;;;;;;;;31.33;25.00;;;;;20.57;36.64;102597.63;5063629;28;45426;-67
2022/03/21 10:00:03;;;;;;;;;31.67;26.00;;;;;20.73;35.37;102587.66;5069993;28;45287;-67
2022/03/21 10:02:28;;;;;;;;;26.25;23.25;;;;;20.63;35.48;102585.03;5064096;28;45362;-67
2022/03/21 10:04:54;;;;;;;;;22.67;20.00;;;;;20.68;36.08;102571.56;5070521;28;45496;-65
2022/03/21 10:07:26;;;;;;;;;23.67;23.00;;;;;20.78;34.83;102577.81;5063711;28;46093;-66
2022/03/21 10:10:08;;;;;;;;;26.33;23.33;;;;;21.02;36.39;102581.63;5072460;28;45456;-66
2022/03/21 10:12:33;;;;;;;;;26.67;21.33;;;;;20.94;34.72;102579.72;5062669;28;45379;-66
2022/03/21 10:14:59;;;;;;;;;22.00;20.00;;;;;21.01;34.31;102580.75;5066323;28;45450;-66
2022/03/21 10:17:25;;;;;;;;;23.00;20.33;;;;;21.05;34.48;102586.78;5064702;28;45547;-66
2022/03/21 10:19:54;;;;;;;;;23.33;20.00;;;;;21.27;35.06;102562.09;5066802;28;45454;-66
2022/03/21 10:22:32;;;;;;;;;24.67;21.33;;;;;21.63;35.37;102573.63;5070134;28;45224;-66
2022/03/21 10:25:04;;;;;;;;;28.00;23.00;;;;;21.83;34.03;102587.06;5068294;28;45612;-66
2022/03/21 10:27:37;;;;;;;;;13.00;13.00;;;;;21.91;34.61;102576.84;5063813;27;48396;-66
2022/03/21 10:30:09;;;;;;;;;12.33;12.33;;;;;21.98;34.22;102569.59;5080180;27;45415;-66
2022/03/21 10:32:42;;;;;;;;;20.33;15.67;;;;;21.94;33.67;102575.59;5078338;28;45654;-67
2022/03/21 10:35:11;;;;;;;;;14.00;14.00;;;;;21.84;33.36;102569.44;5074143;27;45766;-66
2022/03/21 10:37:42;;;;;;;;;12.67;12.33;;;;;21.60;33.13;102565.69;5066144;28;47464;-66
2022/03/21 10:40:36;;;;;;;;;15.67;13.67;;;;;21.64;33.43;102575.34;5069105;28;45381;-66
2022/03/21 10:43:09;;;;;;;;;15.33;15.33;;;;;21.92;34.38;102563.84;5062681;28;45234;-67
2022/03/21 10:45:35;;;;;;;;;17.67;16.67;;;;;22.18;34.17;102558.06;5073225;28;45450;-67
2022/03/21 10:48:03;;;;;;;;;19.33;17.00;;;;;22.04;32.55;102556.91;5063683;28;45381;-68
2022/03/21 10:50:41;;;;;;;;;20.00;16.67;;;;;22.26;32.91;102550.59;5071408;28;45456;-67
2022/03/21 10:53:12;;;;;;;;;14.00;13.00;;;;;22.56;32.42;102559.91;5063558;28;46436;-67
2022/03/21 10:55:39;;;;;;;;;15.00;14.33;;;;;22.67;32.40;102544.75;5073769;28;45627;-67
2022/03/21 10:58:06;;;;;;;;;18.67;14.67;;;;;22.65;33.49;102552.38;5075658;27;47972;-67
2022/03/21 11:00:32;;;;;;;;;20.33;20.33;;;;;22.36;32.45;102558.63;5075694;28;45417;-66
2022/03/21 11:03:17;;;;;;;;;23.00;21.33;;;;;22.46;32.78;102551.84;5064480;27;45379;-66
2022/03/21 11:05:45;;;;;;;;;23.33;21.67;;;;;22.46;31.77;102548.19;5069557;28;45404;-66
2022/03/21 11:08:12;;;;;;;;;19.00;18.33;;;;;21.62;33.32;102546.16;5079379;28;45950;-65
2022/03/21 11:10:38;;;;;;;;;20.00;19.00;;;;;21.99;33.02;102545.53;5068504;28;45421;-65
2022/03/21 11:13:05;;;;;;;;;20.67;17.00;;;;;22.37;33.63;102541.84;5078288;28;45318;-65
2022/03/21 11:15:33;;;;;;;;;58.50;46.50;;;;;22.60;33.14;102541.88;5069538;27;45518;-66
2022/03/21 11:17:58;;;;;;;;;20.67;18.67;;;;;22.74;31.93;102540.25;5074412;28;47957;-66
2022/03/21 11:20:26;;;;;;;;;14.67;12.33;;;;;22.68;32.87;102538.19;5064699;28;45297;-66
2022/03/21 11:22:55;;;;;;;;;17.33;17.33;;;;;22.64;31.51;102534.06;5066012;28;45217;-66
2022/03/21 11:25:23;;;;;;;;;15.33;12.00;;;;;22.36;32.69;102525.41;5070587;27;45376;-68
2022/03/21 11:28:20;;;;;;;;;16.00;12.67;;;;;22.56;32.86;102525.81;5083159;27;46371;-66
2022/03/21 11:30:59;;;;;;;;;13.67;12.67;;;;;22.74;32.48;102529.16;5070807;27;45419;-66
2022/03/21 11:33:38;;;;;;;;;13.00;13.00;;;;;22.56;31.87;102514.72;5083537;27;45390;-65
2022/03/21 11:36:09;;;;;;;;;14.67;14.67;;;;;22.55;32.24;102518.53;5073232;28;45463;-66
2022/03/21 11:38:41;;;;;;;;;11.33;7.33;;;;;22.69;32.62;102515.84;5062598;28;45467;-67